sensor_id;sensor_type;location;lat;lon;timestamp;P1;durP1;ratioP1;P2;durP2;ratioP2
59922;SDS011;45778;51.142;3.732;2023-05-16T00:01:33;12.20;;;2.05;;
59922;SDS011;45778;51.142;3.732;2023-05-16T00:03:59;17.20;;;2.92;;
59922;SDS011;45778;51.142;3.732;2023-05-16T00:06:25;13.23;;;3.08;;
59922;SDS011;45778;51.142;3.732;2023-05-16T00:08:51;13.40;;;1.75;;
59922;SDS011;45778;51.142;3.732;2023-05-16T00:11:16;13.00;;;2.15;;
59922;SDS011;45778;51.142;3.732;2023-05-16T00:13:42;12.20;;;2.55;;
59922;SDS011;45778;51.142;3.732;2023-05-16T00:16:08;17.52;;;2.22;;
59922;SDS011;45778;51.142;3.732;2023-05-16T00:18:35;12.85;;;1.83;;
59922;SDS011;45778;51.142;3.732;2023-05-16T00:21:02;7.95;;;1.70;;
59922;SDS011;45778;51.142;3.732;2023-05-16T00:23:29;7.55;;;1.60;;
59922;SDS011;45778;51.142;3.732;2023-05-16T00:25:55;12.98;;;2.05;;
59922;SDS011;45778;51.142;3.732;2023-05-16T00:28:20;13.60;;;2.50;;
59922;SDS011;45778;51.142;3.732;2023-05-16T00:30:46;9.73;;;1.73;;
59922;SDS011;45778;51.142;3.732;2023-05-16T00:33:12;12.27;;;1.77;;
59922;SDS011;45778;51.142;3.732;2023-05-16T00:35:38;6.72;;;1.98;;
59922;SDS011;45778;51.142;3.732;2023-05-16T00:38:03;10.82;;;1.83;;
59922;SDS011;45778;51.142;3.732;2023-05-16T00:40:30;11.48;;;2.20;;
59922;SDS011;45778;51.142;3.732;2023-05-16T00:42:56;5.95;;;1.55;;
59922;SDS011;45778;51.142;3.732;2023-05-16T00:45:22;9.38;;;2.65;;
59922;SDS011;45778;51.142;3.732;2023-05-16T00:47:48;7.63;;;2.10;;
59922;SDS011;45778;51.142;3.732;2023-05-16T00:50:14;17.40;;;2.38;;
59922;SDS011;45778;51.142;3.732;2023-05-16T00:52:41;9.00;;;1.92;;
59922;SDS011;45778;51.142;3.732;2023-05-16T00:55:07;11.05;;;2.95;;
59922;SDS011;45778;51.142;3.732;2023-05-16T00:57:35;10.35;;;2.15;;
59922;SDS011;45778;51.142;3.732;2023-05-16T01:00:02;12.15;;;1.80;;
59922;SDS011;45778;51.142;3.732;2023-05-16T01:02:30;7.60;;;1.73;;
59922;SDS011;45778;51.142;3.732;2023-05-16T01:04:58;14.02;;;2.45;;
59922;SDS011;45778;51.142;3.732;2023-05-16T01:07:24;11.02;;;2.75;;
59922;SDS011;45778;51.142;3.732;2023-05-16T01:09:50;8.98;;;2.40;;
59922;SDS011;45778;51.142;3.732;2023-05-16T01:14:48;16.25;;;1.90;;
59922;SDS011;45778;51.142;3.732;2023-05-16T01:28:49;8.45;;;2.10;;
59922;SDS011;45778;51.142;3.732;2023-05-16T01:31:16;7.50;;;1.95;;
59922;SDS011;45778;51.142;3.732;2023-05-16T01:33:42;14.35;;;2.90;;
59922;SDS011;45778;51.142;3.732;2023-05-16T01:38:43;5.90;;;2.47;;
59922;SDS011;45778;51.142;3.732;2023-05-16T01:41:18;8.13;;;2.13;;
59922;SDS011;45778;51.142;3.732;2023-05-16T01:43:50;13.20;;;2.10;;
59922;SDS011;45778;51.142;3.732;2023-05-16T01:46:26;12.10;;;2.80;;
59922;SDS011;45778;51.142;3.732;2023-05-16T01:51:28;11.10;;;2.42;;
59922;SDS011;45778;51.142;3.732;2023-05-16T01:53:57;8.45;;;1.73;;
59922;SDS011;45778;51.142;3.732;2023-05-16T01:56:25;8.63;;;1.88;;
59922;SDS011;45778;51.142;3.732;2023-05-16T01:58:53;8.20;;;1.98;;
59922;SDS011;45778;51.142;3.732;2023-05-16T02:01:21;7.97;;;1.45;;
59922;SDS011;45778;51.142;3.732;2023-05-16T02:03:47;7.72;;;2.00;;
59922;SDS011;45778;51.142;3.732;2023-05-16T02:06:13;9.55;;;1.35;;
59922;SDS011;45778;51.142;3.732;2023-05-16T02:08:38;6.63;;;1.45;;
59922;SDS011;45778;51.142;3.732;2023-05-16T02:11:04;9.95;;;1.65;;
59922;SDS011;45778;51.142;3.732;2023-05-16T02:13:30;12.27;;;2.25;;
59922;SDS011;45778;51.142;3.732;2023-05-16T02:15:55;8.10;;;1.42;;
59922;SDS011;45778;51.142;3.732;2023-05-16T02:18:21;14.18;;;1.67;;
59922;SDS011;45778;51.142;3.732;2023-05-16T02:20:47;8.63;;;1.85;;
59922;SDS011;45778;51.142;3.732;2023-05-16T02:23:14;7.93;;;1.23;;
59922;SDS011;45778;51.142;3.732;2023-05-16T02:25:39;11.98;;;2.42;;
59922;SDS011;45778;51.142;3.732;2023-05-16T02:28:05;10.75;;;1.38;;
59922;SDS011;45778;51.142;3.732;2023-05-16T02:30:31;9.30;;;1.58;;
59922;SDS011;45778;51.142;3.732;2023-05-16T02:32:57;9.23;;;1.80;;
59922;SDS011;45778;51.142;3.732;2023-05-16T02:35:22;6.38;;;1.40;;
59922;SDS011;45778;51.142;3.732;2023-05-16T02:37:48;16.35;;;1.80;;
59922;SDS011;45778;51.142;3.732;2023-05-16T02:40:14;9.38;;;1.38;;
59922;SDS011;45778;51.142;3.732;2023-05-16T02:42:39;5.75;;;1.55;;
59922;SDS011;45778;51.142;3.732;2023-05-16T02:45:05;7.75;;;1.80;;
59922;SDS011;45778;51.142;3.732;2023-05-16T02:47:31;5.80;;;1.50;;
59922;SDS011;45778;51.142;3.732;2023-05-16T02:49:57;10.70;;;1.80;;
59922;SDS011;45778;51.142;3.732;2023-05-16T02:52:22;6.40;;;1.20;;
59922;SDS011;45778;51.142;3.732;2023-05-16T02:54:48;10.32;;;3.15;;
59922;SDS011;45778;51.142;3.732;2023-05-16T02:57:14;8.48;;;2.25;;
59922;SDS011;45778;51.142;3.732;2023-05-16T02:59:40;6.68;;;1.20;;
59922;SDS011;45778;51.142;3.732;2023-05-16T03:02:06;10.07;;;1.58;;
59922;SDS011;45778;51.142;3.732;2023-05-16T03:04:32;10.32;;;1.55;;
59922;SDS011;45778;51.142;3.732;2023-05-16T03:06:58;8.07;;;1.58;;
59922;SDS011;45778;51.142;3.732;2023-05-16T03:09:24;9.27;;;1.88;;
59922;SDS011;45778;51.142;3.732;2023-05-16T03:11:50;6.97;;;1.45;;
59922;SDS011;45778;51.142;3.732;2023-05-16T03:14:15;5.75;;;1.38;;
59922;SDS011;45778;51.142;3.732;2023-05-16T03:16:41;7.38;;;1.48;;
59922;SDS011;45778;51.142;3.732;2023-05-16T03:19:08;9.48;;;1.60;;
59922;SDS011;45778;51.142;3.732;2023-05-16T03:21:34;9.57;;;1.48;;
59922;SDS011;45778;51.142;3.732;2023-05-16T03:24:01;8.52;;;1.35;;
59922;SDS011;45778;51.142;3.732;2023-05-16T03:26:28;8.00;;;1.70;;
59922;SDS011;45778;51.142;3.732;2023-05-16T03:28:53;12.80;;;2.13;;
59922;SDS011;45778;51.142;3.732;2023-05-16T03:31:19;6.15;;;1.20;;
59922;SDS011;45778;51.142;3.732;2023-05-16T03:33:45;4.75;;;1.80;;
59922;SDS011;45778;51.142;3.732;2023-05-16T03:36:10;6.97;;;1.52;;
59922;SDS011;45778;51.142;3.732;2023-05-16T03:38:36;7.35;;;1.20;;
59922;SDS011;45778;51.142;3.732;2023-05-16T03:41:02;10.23;;;1.70;;
59922;SDS011;45778;51.142;3.732;2023-05-16T03:43:27;3.35;;;1.10;;
59922;SDS011;45778;51.142;3.732;2023-05-16T03:45:53;7.70;;;2.70;;
59922;SDS011;45778;51.142;3.732;2023-05-16T03:48:19;6.47;;;1.55;;
59922;SDS011;45778;51.142;3.732;2023-05-16T03:50:45;9.10;;;1.73;;
59922;SDS011;45778;51.142;3.732;2023-05-16T03:53:11;5.75;;;1.20;;
59922;SDS011;45778;51.142;3.732;2023-05-16T03:55:37;11.55;;;1.77;;
59922;SDS011;45778;51.142;3.732;2023-05-16T03:58:03;7.18;;;1.25;;
59922;SDS011;45778;51.142;3.732;2023-05-16T04:00:29;11.80;;;1.40;;
59922;SDS011;45778;51.142;3.732;2023-05-16T04:02:55;9.13;;;2.53;;
59922;SDS011;45778;51.142;3.732;2023-05-16T04:05:20;5.30;;;1.50;;
59922;SDS011;45778;51.142;3.732;2023-05-16T04:07:46;9.70;;;1.30;;
59922;SDS011;45778;51.142;3.732;2023-05-16T04:10:12;5.85;;;1.00;;
59922;SDS011;45778;51.142;3.732;2023-05-16T04:12:38;7.50;;;1.40;;
59922;SDS011;45778;51.142;3.732;2023-05-16T04:15:04;11.00;;;1.30;;
59922;SDS011;45778;51.142;3.732;2023-05-16T04:17:31;8.85;;;1.73;;
59922;SDS011;45778;51.142;3.732;2023-05-16T04:19:57;5.28;;;1.35;;
59922;SDS011;45778;51.142;3.732;2023-05-16T04:22:23;8.23;;;1.45;;
59922;SDS011;45778;51.142;3.732;2023-05-16T04:24:49;8.90;;;1.58;;
59922;SDS011;45778;51.142;3.732;2023-05-16T04:27:15;9.23;;;1.35;;
59922;SDS011;45778;51.142;3.732;2023-05-16T04:29:41;11.07;;;1.33;;
59922;SDS011;45778;51.142;3.732;2023-05-16T04:32:07;11.05;;;1.58;;
59922;SDS011;45778;51.142;3.732;2023-05-16T04:34:33;6.60;;;1.33;;
59922;SDS011;45778;51.142;3.732;2023-05-16T04:37:01;5.88;;;1.00;;
59922;SDS011;45778;51.142;3.732;2023-05-16T04:39:31;6.63;;;1.33;;
59922;SDS011;45778;51.142;3.732;2023-05-16T04:41:57;13.35;;;2.20;;
59922;SDS011;45778;51.142;3.732;2023-05-16T04:44:26;8.88;;;1.58;;
59922;SDS011;45778;51.142;3.732;2023-05-16T04:46:52;6.93;;;1.20;;
59922;SDS011;45778;51.142;3.732;2023-05-16T04:49:18;9.85;;;1.30;;
59922;SDS011;45778;51.142;3.732;2023-05-16T04:51:45;6.07;;;1.30;;
59922;SDS011;45778;51.142;3.732;2023-05-16T04:54:11;5.65;;;1.58;;
59922;SDS011;45778;51.142;3.732;2023-05-16T04:56:37;10.15;;;2.20;;
59922;SDS011;45778;51.142;3.732;2023-05-16T04:59:03;10.95;;;1.83;;
59922;SDS011;45778;51.142;3.732;2023-05-16T05:01:29;10.20;;;1.38;;
59922;SDS011;45778;51.142;3.732;2023-05-16T05:03:55;6.65;;;1.50;;
59922;SDS011;45778;51.142;3.732;2023-05-16T05:06:20;5.38;;;1.45;;
59922;SDS011;45778;51.142;3.732;2023-05-16T05:08:46;9.23;;;1.30;;
59922;SDS011;45778;51.142;3.732;2023-05-16T05:11:12;11.90;;;1.45;;
59922;SDS011;45778;51.142;3.732;2023-05-16T05:13:41;9.63;;;1.23;;
59922;SDS011;45778;51.142;3.732;2023-05-16T05:16:07;8.98;;;1.08;;
59922;SDS011;45778;51.142;3.732;2023-05-16T05:18:33;8.73;;;1.45;;
59922;SDS011;45778;51.142;3.732;2023-05-16T05:20:58;6.47;;;1.20;;
59922;SDS011;45778;51.142;3.732;2023-05-16T05:23:24;8.07;;;2.47;;
59922;SDS011;45778;51.142;3.732;2023-05-16T05:25:50;9.02;;;0.98;;
59922;SDS011;45778;51.142;3.732;2023-05-16T05:28:15;7.97;;;1.23;;
59922;SDS011;45778;51.142;3.732;2023-05-16T05:30:41;5.70;;;1.20;;
59922;SDS011;45778;51.142;3.732;2023-05-16T05:33:09;9.40;;;1.35;;
59922;SDS011;45778;51.142;3.732;2023-05-16T05:35:35;5.82;;;1.40;;
59922;SDS011;45778;51.142;3.732;2023-05-16T05:38:01;9.98;;;1.40;;
59922;SDS011;45778;51.142;3.732;2023-05-16T05:40:28;9.05;;;1.30;;
59922;SDS011;45778;51.142;3.732;2023-05-16T05:42:53;6.15;;;1.33;;
59922;SDS011;45778;51.142;3.732;2023-05-16T05:45:19;10.65;;;1.30;;
59922;SDS011;45778;51.142;3.732;2023-05-16T05:47:45;8.88;;;1.20;;
59922;SDS011;45778;51.142;3.732;2023-05-16T05:50:10;7.35;;;1.27;;
59922;SDS011;45778;51.142;3.732;2023-05-16T05:52:37;10.13;;;1.48;;
59922;SDS011;45778;51.142;3.732;2023-05-16T05:55:03;2.53;;;1.10;;
59922;SDS011;45778;51.142;3.732;2023-05-16T05:57:29;7.60;;;1.20;;
59922;SDS011;45778;51.142;3.732;2023-05-16T05:59:54;6.53;;;1.30;;
59922;SDS011;45778;51.142;3.732;2023-05-16T06:02:20;6.22;;;1.20;;
59922;SDS011;45778;51.142;3.732;2023-05-16T06:04:46;6.57;;;1.17;;
59922;SDS011;45778;51.142;3.732;2023-05-16T06:07:11;7.07;;;1.15;;
59922;SDS011;45778;51.142;3.732;2023-05-16T06:09:39;7.28;;;1.33;;
59922;SDS011;45778;51.142;3.732;2023-05-16T06:12:06;4.82;;;1.30;;
59922;SDS011;45778;51.142;3.732;2023-05-16T06:14:32;7.25;;;1.23;;
59922;SDS011;45778;51.142;3.732;2023-05-16T06:16:58;7.47;;;1.67;;
59922;SDS011;45778;51.142;3.732;2023-05-16T06:19:23;5.32;;;1.20;;
59922;SDS011;45778;51.142;3.732;2023-05-16T06:21:49;6.28;;;1.35;;
59922;SDS011;45778;51.142;3.732;2023-05-16T06:24:15;6.90;;;1.00;;
59922;SDS011;45778;51.142;3.732;2023-05-16T06:26:41;10.80;;;3.55;;
59922;SDS011;45778;51.142;3.732;2023-05-16T06:29:06;10.00;;;1.52;;
59922;SDS011;45778;51.142;3.732;2023-05-16T06:31:32;6.63;;;1.33;;
59922;SDS011;45778;51.142;3.732;2023-05-16T06:33:58;9.35;;;1.67;;
59922;SDS011;45778;51.142;3.732;2023-05-16T06:36:23;12.82;;;1.60;;
59922;SDS011;45778;51.142;3.732;2023-05-16T06:38:49;10.68;;;2.33;;
59922;SDS011;45778;51.142;3.732;2023-05-16T06:41:15;5.35;;;1.23;;
59922;SDS011;45778;51.142;3.732;2023-05-16T06:43:40;6.30;;;0.80;;
59922;SDS011;45778;51.142;3.732;2023-05-16T06:46:06;5.32;;;0.90;;
59922;SDS011;45778;51.142;3.732;2023-05-16T06:48:32;13.75;;;1.63;;
59922;SDS011;45778;51.142;3.732;2023-05-16T06:50:57;6.45;;;1.13;;
59922;SDS011;45778;51.142;3.732;2023-05-16T06:53:23;8.07;;;0.90;;
59922;SDS011;45778;51.142;3.732;2023-05-16T06:55:50;8.07;;;1.25;;
59922;SDS011;45778;51.142;3.732;2023-05-16T06:58:16;8.05;;;1.27;;
59922;SDS011;45778;51.142;3.732;2023-05-16T07:00:41;6.18;;;0.95;;
59922;SDS011;45778;51.142;3.732;2023-05-16T07:03:08;4.75;;;0.98;;
59922;SDS011;45778;51.142;3.732;2023-05-16T07:05:33;11.23;;;1.20;;
59922;SDS011;45778;51.142;3.732;2023-05-16T07:07:59;6.45;;;1.05;;
59922;SDS011;45778;51.142;3.732;2023-05-16T07:10:25;7.13;;;1.73;;
59922;SDS011;45778;51.142;3.732;2023-05-16T07:12:51;7.20;;;1.08;;
59922;SDS011;45778;51.142;3.732;2023-05-16T07:15:17;4.47;;;0.77;;
59922;SDS011;45778;51.142;3.732;2023-05-16T07:17:42;9.48;;;0.90;;
59922;SDS011;45778;51.142;3.732;2023-05-16T07:20:08;3.50;;;1.00;;
59922;SDS011;45778;51.142;3.732;2023-05-16T07:22:37;8.15;;;1.25;;
59922;SDS011;45778;51.142;3.732;2023-05-16T07:25:03;5.53;;;1.38;;
59922;SDS011;45778;51.142;3.732;2023-05-16T07:27:29;3.38;;;0.60;;
59922;SDS011;45778;51.142;3.732;2023-05-16T07:29:56;6.18;;;0.68;;
59922;SDS011;45778;51.142;3.732;2023-05-16T07:32:21;11.25;;;1.20;;
59922;SDS011;45778;51.142;3.732;2023-05-16T07:34:47;4.45;;;0.75;;
59922;SDS011;45778;51.142;3.732;2023-05-16T07:37:13;9.45;;;1.15;;
59922;SDS011;45778;51.142;3.732;2023-05-16T07:39:40;6.65;;;0.90;;
59922;SDS011;45778;51.142;3.732;2023-05-16T07:42:06;2.97;;;0.57;;
59922;SDS011;45778;51.142;3.732;2023-05-16T07:44:33;4.63;;;0.80;;
59922;SDS011;45778;51.142;3.732;2023-05-16T07:46:59;9.70;;;0.85;;
59922;SDS011;45778;51.142;3.732;2023-05-16T07:49:25;1.70;;;0.38;;
59922;SDS011;45778;51.142;3.732;2023-05-16T07:51:50;4.57;;;0.77;;
59922;SDS011;45778;51.142;3.732;2023-05-16T07:54:16;4.10;;;0.60;;
59922;SDS011;45778;51.142;3.732;2023-05-16T07:56:42;3.03;;;0.50;;
59922;SDS011;45778;51.142;3.732;2023-05-16T07:59:07;5.25;;;1.02;;
59922;SDS011;45778;51.142;3.732;2023-05-16T08:01:34;1.85;;;0.57;;
59922;SDS011;45778;51.142;3.732;2023-05-16T08:03:59;5.88;;;0.70;;
59922;SDS011;45778;51.142;3.732;2023-05-16T08:06:25;5.85;;;1.17;;
59922;SDS011;45778;51.142;3.732;2023-05-16T08:08:51;3.00;;;0.47;;
59922;SDS011;45778;51.142;3.732;2023-05-16T08:11:17;3.65;;;0.73;;
59922;SDS011;45778;51.142;3.732;2023-05-16T08:13:46;5.60;;;0.70;;
59922;SDS011;45778;51.142;3.732;2023-05-16T08:16:12;8.93;;;0.70;;
59922;SDS011;45778;51.142;3.732;2023-05-16T08:18:38;1.92;;;0.40;;
59922;SDS011;45778;51.142;3.732;2023-05-16T08:21:03;5.63;;;0.60;;
59922;SDS011;45778;51.142;3.732;2023-05-16T08:23:29;6.18;;;0.50;;
59922;SDS011;45778;51.142;3.732;2023-05-16T08:25:55;4.95;;;0.47;;
59922;SDS011;45778;51.142;3.732;2023-05-16T08:28:21;4.63;;;0.60;;
59922;SDS011;45778;51.142;3.732;2023-05-16T08:30:46;2.78;;;0.55;;
59922;SDS011;45778;51.142;3.732;2023-05-16T08:33:12;4.30;;;0.57;;
59922;SDS011;45778;51.142;3.732;2023-05-16T08:35:41;4.63;;;1.00;;
59922;SDS011;45778;51.142;3.732;2023-05-16T08:38:10;5.50;;;1.07;;
59922;SDS011;45778;51.142;3.732;2023-05-16T08:40:36;3.67;;;0.77;;
59922;SDS011;45778;51.142;3.732;2023-05-16T08:43:02;6.60;;;0.80;;
59922;SDS011;45778;51.142;3.732;2023-05-16T08:45:28;2.88;;;0.80;;
59922;SDS011;45778;51.142;3.732;2023-05-16T08:47:55;2.45;;;0.80;;
59922;SDS011;45778;51.142;3.732;2023-05-16T08:50:21;3.53;;;0.70;;
59922;SDS011;45778;51.142;3.732;2023-05-16T08:52:50;6.45;;;0.75;;
59922;SDS011;45778;51.142;3.732;2023-05-16T08:55:18;3.28;;;0.80;;
59922;SDS011;45778;51.142;3.732;2023-05-16T08:57:47;3.75;;;0.88;;
59922;SDS011;45778;51.142;3.732;2023-05-16T09:00:15;6.97;;;0.60;;
59922;SDS011;45778;51.142;3.732;2023-05-16T09:02:43;7.53;;;0.65;;
59922;SDS011;45778;51.142;3.732;2023-05-16T09:05:13;4.53;;;1.35;;
59922;SDS011;45778;51.142;3.732;2023-05-16T09:07:40;5.78;;;0.63;;
59922;SDS011;45778;51.142;3.732;2023-05-16T09:10:07;2.83;;;0.60;;
59922;SDS011;45778;51.142;3.732;2023-05-16T09:12:33;1.15;;;0.43;;
59922;SDS011;45778;51.142;3.732;2023-05-16T09:15:02;4.45;;;0.38;;
59922;SDS011;45778;51.142;3.732;2023-05-16T09:17:41;6.13;;;0.80;;
59922;SDS011;45778;51.142;3.732;2023-05-16T09:20:14;5.70;;;0.82;;
59922;SDS011;45778;51.142;3.732;2023-05-16T09:22:53;2.72;;;0.52;;
59922;SDS011;45778;51.142;3.732;2023-05-16T09:25:21;1.60;;;0.30;;
59922;SDS011;45778;51.142;3.732;2023-05-16T09:27:51;4.88;;;0.60;;
59922;SDS011;45778;51.142;3.732;2023-05-16T09:30:21;6.00;;;0.70;;
59922;SDS011;45778;51.142;3.732;2023-05-16T09:32:55;3.10;;;0.35;;
59922;SDS011;45778;51.142;3.732;2023-05-16T09:35:21;3.03;;;0.40;;
59922;SDS011;45778;51.142;3.732;2023-05-16T09:37:48;3.80;;;0.50;;
59922;SDS011;45778;51.142;3.732;2023-05-16T09:40:18;6.68;;;1.20;;
59922;SDS011;45778;51.142;3.732;2023-05-16T09:42:45;11.18;;;0.90;;
59922;SDS011;45778;51.142;3.732;2023-05-16T09:45:12;8.50;;;1.40;;
59922;SDS011;45778;51.142;3.732;2023-05-16T09:47:38;4.40;;;0.65;;
59922;SDS011;45778;51.142;3.732;2023-05-16T09:50:10;2.92;;;0.50;;
59922;SDS011;45778;51.142;3.732;2023-05-16T09:52:40;2.75;;;0.70;;
59922;SDS011;45778;51.142;3.732;2023-05-16T09:55:07;1.73;;;0.35;;
59922;SDS011;45778;51.142;3.732;2023-05-16T09:57:35;5.32;;;0.52;;
59922;SDS011;45778;51.142;3.732;2023-05-16T10:00:03;5.43;;;0.70;;
59922;SDS011;45778;51.142;3.732;2023-05-16T10:02:32;7.35;;;0.85;;
59922;SDS011;45778;51.142;3.732;2023-05-16T10:04:59;3.35;;;0.65;;
59922;SDS011;45778;51.142;3.732;2023-05-16T10:07:25;3.78;;;0.43;;
59922;SDS011;45778;51.142;3.732;2023-05-16T10:09:51;4.22;;;0.88;;
59922;SDS011;45778;51.142;3.732;2023-05-16T10:12:18;2.45;;;1.00;;
59922;SDS011;45778;51.142;3.732;2023-05-16T10:14:50;2.35;;;0.40;;
59922;SDS011;45778;51.142;3.732;2023-05-16T10:17:16;3.08;;;0.40;;
59922;SDS011;45778;51.142;3.732;2023-05-16T10:19:43;4.50;;;0.73;;
59922;SDS011;45778;51.142;3.732;2023-05-16T10:22:11;4.55;;;0.63;;
59922;SDS011;45778;51.142;3.732;2023-05-16T10:27:36;6.22;;;0.80;;
59922;SDS011;45778;51.142;3.732;2023-05-16T10:30:03;7.53;;;0.85;;
59922;SDS011;45778;51.142;3.732;2023-05-16T10:32:31;3.95;;;0.70;;
59922;SDS011;45778;51.142;3.732;2023-05-16T10:34:58;3.50;;;0.68;;
59922;SDS011;45778;51.142;3.732;2023-05-16T10:37:27;4.60;;;1.10;;
59922;SDS011;45778;51.142;3.732;2023-05-16T10:39:54;3.55;;;1.00;;
59922;SDS011;45778;51.142;3.732;2023-05-16T10:42:20;3.38;;;0.60;;
59922;SDS011;45778;51.142;3.732;2023-05-16T10:44:46;5.50;;;0.50;;
59922;SDS011;45778;51.142;3.732;2023-05-16T10:47:11;3.65;;;1.13;;
59922;SDS011;45778;51.142;3.732;2023-05-16T10:49:42;3.78;;;0.50;;
59922;SDS011;45778;51.142;3.732;2023-05-16T10:52:08;4.05;;;0.60;;
59922;SDS011;45778;51.142;3.732;2023-05-16T10:54:42;7.13;;;0.65;;
59922;SDS011;45778;51.142;3.732;2023-05-16T10:57:14;5.38;;;0.60;;
59922;SDS011;45778;51.142;3.732;2023-05-16T10:59:45;3.92;;;0.60;;
59922;SDS011;45778;51.142;3.732;2023-05-16T11:02:31;3.65;;;0.47;;
59922;SDS011;45778;51.142;3.732;2023-05-16T11:04:59;4.47;;;0.75;;
59922;SDS011;45778;51.142;3.732;2023-05-16T11:07:33;5.60;;;0.68;;
59922;SDS011;45778;51.142;3.732;2023-05-16T11:10:05;1.75;;;0.35;;
59922;SDS011;45778;51.142;3.732;2023-05-16T11:12:37;7.43;;;0.70;;
59922;SDS011;45778;51.142;3.732;2023-05-16T11:15:20;4.85;;;0.75;;
59922;SDS011;45778;51.142;3.732;2023-05-16T11:17:46;2.33;;;0.55;;
59922;SDS011;45778;51.142;3.732;2023-05-16T11:20:28;4.00;;;0.40;;
59922;SDS011;45778;51.142;3.732;2023-05-16T11:25:41;7.78;;;0.90;;
59922;SDS011;45778;51.142;3.732;2023-05-16T11:28:09;3.38;;;0.60;;
59922;SDS011;45778;51.142;3.732;2023-05-16T11:30:42;4.80;;;0.52;;
59922;SDS011;45778;51.142;3.732;2023-05-16T11:33:13;5.22;;;0.82;;
59922;SDS011;45778;51.142;3.732;2023-05-16T11:35:40;3.38;;;0.70;;
59922;SDS011;45778;51.142;3.732;2023-05-16T11:38:10;3.75;;;1.05;;
59922;SDS011;45778;51.142;3.732;2023-05-16T11:40:40;4.25;;;0.95;;
59922;SDS011;45778;51.142;3.732;2023-05-16T11:43:07;3.00;;;1.27;;
59922;SDS011;45778;51.142;3.732;2023-05-16T11:45:33;4.28;;;0.60;;
59922;SDS011;45778;51.142;3.732;2023-05-16T11:48:00;2.55;;;0.63;;
59922;SDS011;45778;51.142;3.732;2023-05-16T11:50:30;6.28;;;0.90;;
59922;SDS011;45778;51.142;3.732;2023-05-16T11:52:58;2.38;;;0.63;;
59922;SDS011;45778;51.142;3.732;2023-05-16T11:55:24;2.65;;;0.55;;
59922;SDS011;45778;51.142;3.732;2023-05-16T11:57:52;3.83;;;0.50;;
59922;SDS011;45778;51.142;3.732;2023-05-16T12:00:20;4.15;;;1.10;;
59922;SDS011;45778;51.142;3.732;2023-05-16T12:02:51;3.08;;;0.70;;
59922;SDS011;45778;51.142;3.732;2023-05-16T12:05:25;3.22;;;0.98;;
59922;SDS011;45778;51.142;3.732;2023-05-16T12:07:52;2.78;;;0.50;;
59922;SDS011;45778;51.142;3.732;2023-05-16T12:10:18;3.88;;;0.68;;
59922;SDS011;45778;51.142;3.732;2023-05-16T12:12:45;3.17;;;0.60;;
59922;SDS011;45778;51.142;3.732;2023-05-16T12:15:12;6.22;;;0.80;;
59922;SDS011;45778;51.142;3.732;2023-05-16T12:17:39;5.38;;;0.95;;
59922;SDS011;45778;51.142;3.732;2023-05-16T12:20:06;4.03;;;0.73;;
59922;SDS011;45778;51.142;3.732;2023-05-16T12:22:41;3.92;;;0.90;;
59922;SDS011;45778;51.142;3.732;2023-05-16T12:28:10;2.50;;;0.60;;
59922;SDS011;45778;51.142;3.732;2023-05-16T12:30:38;5.93;;;0.73;;
59922;SDS011;45778;51.142;3.732;2023-05-16T12:33:09;2.65;;;0.65;;
59922;SDS011;45778;51.142;3.732;2023-05-16T12:35:37;2.67;;;0.80;;
59922;SDS011;45778;51.142;3.732;2023-05-16T12:38:04;4.35;;;0.77;;
59922;SDS011;45778;51.142;3.732;2023-05-16T12:40:32;4.78;;;0.65;;
59922;SDS011;45778;51.142;3.732;2023-05-16T12:42:58;3.50;;;0.70;;
59922;SDS011;45778;51.142;3.732;2023-05-16T12:45:25;4.15;;;1.05;;
59922;SDS011;45778;51.142;3.732;2023-05-16T12:47:51;4.20;;;0.73;;
59922;SDS011;45778;51.142;3.732;2023-05-16T12:50:17;4.10;;;0.80;;
59922;SDS011;45778;51.142;3.732;2023-05-16T12:52:50;3.45;;;0.55;;
59922;SDS011;45778;51.142;3.732;2023-05-16T12:55:17;2.53;;;0.40;;
59922;SDS011;45778;51.142;3.732;2023-05-16T12:57:44;3.25;;;0.55;;
59922;SDS011;45778;51.142;3.732;2023-05-16T13:00:14;4.95;;;0.95;;
59922;SDS011;45778;51.142;3.732;2023-05-16T13:02:43;1.80;;;0.63;;
59922;SDS011;45778;51.142;3.732;2023-05-16T13:05:08;2.15;;;0.60;;
59922;SDS011;45778;51.142;3.732;2023-05-16T13:07:35;3.60;;;0.70;;
59922;SDS011;45778;51.142;3.732;2023-05-16T13:10:01;2.97;;;0.80;;
59922;SDS011;45778;51.142;3.732;2023-05-16T13:12:28;2.03;;;0.73;;
59922;SDS011;45778;51.142;3.732;2023-05-16T13:14:54;3.92;;;0.45;;
59922;SDS011;45778;51.142;3.732;2023-05-16T13:17:20;2.13;;;0.70;;
59922;SDS011;45778;51.142;3.732;2023-05-16T13:19:47;1.85;;;0.32;;
59922;SDS011;45778;51.142;3.732;2023-05-16T13:22:13;3.05;;;0.60;;
59922;SDS011;45778;51.142;3.732;2023-05-16T13:24:39;2.13;;;0.50;;
59922;SDS011;45778;51.142;3.732;2023-05-16T13:27:05;4.07;;;0.60;;
59922;SDS011;45778;51.142;3.732;2023-05-16T13:29:31;3.38;;;0.80;;
59922;SDS011;45778;51.142;3.732;2023-05-16T13:31:56;3.55;;;0.85;;
59922;SDS011;45778;51.142;3.732;2023-05-16T13:34:22;8.23;;;0.80;;
59922;SDS011;45778;51.142;3.732;2023-05-16T13:36:47;5.28;;;0.60;;
59922;SDS011;45778;51.142;3.732;2023-05-16T13:39:13;3.30;;;0.55;;
59922;SDS011;45778;51.142;3.732;2023-05-16T13:41:39;3.65;;;0.57;;
59922;SDS011;45778;51.142;3.732;2023-05-16T13:44:06;3.17;;;1.05;;
59922;SDS011;45778;51.142;3.732;2023-05-16T13:46:32;3.83;;;0.80;;
59922;SDS011;45778;51.142;3.732;2023-05-16T13:48:58;1.98;;;0.50;;
59922;SDS011;45778;51.142;3.732;2023-05-16T13:51:24;2.70;;;0.40;;
59922;SDS011;45778;51.142;3.732;2023-05-16T13:53:49;4.45;;;0.57;;
59922;SDS011;45778;51.142;3.732;2023-05-16T13:56:15;2.47;;;0.50;;
59922;SDS011;45778;51.142;3.732;2023-05-16T13:58:41;1.00;;;0.40;;
59922;SDS011;45778;51.142;3.732;2023-05-16T14:01:07;2.22;;;0.70;;
59922;SDS011;45778;51.142;3.732;2023-05-16T14:03:32;3.33;;;0.63;;
59922;SDS011;45778;51.142;3.732;2023-05-16T14:06:00;3.40;;;0.50;;
59922;SDS011;45778;51.142;3.732;2023-05-16T14:08:26;2.45;;;0.45;;
59922;SDS011;45778;51.142;3.732;2023-05-16T14:10:52;2.53;;;0.52;;
59922;SDS011;45778;51.142;3.732;2023-05-16T14:13:17;5.28;;;0.38;;
59922;SDS011;45778;51.142;3.732;2023-05-16T14:15:43;3.40;;;0.60;;
59922;SDS011;45778;51.142;3.732;2023-05-16T14:18:09;2.22;;;0.40;;
59922;SDS011;45778;51.142;3.732;2023-05-16T14:20:35;1.70;;;0.50;;
59922;SDS011;45778;51.142;3.732;2023-05-16T14:23:01;1.50;;;0.40;;
59922;SDS011;45778;51.142;3.732;2023-05-16T14:25:26;1.48;;;0.40;;
59922;SDS011;45778;51.142;3.732;2023-05-16T14:27:52;2.55;;;0.50;;
59922;SDS011;45778;51.142;3.732;2023-05-16T14:30:18;2.63;;;0.50;;
59922;SDS011;45778;51.142;3.732;2023-05-16T14:32:44;2.50;;;0.45;;
59922;SDS011;45778;51.142;3.732;2023-05-16T14:35:10;4.45;;;0.70;;
59922;SDS011;45778;51.142;3.732;2023-05-16T14:37:35;2.05;;;0.30;;
59922;SDS011;45778;51.142;3.732;2023-05-16T14:40:01;0.85;;;0.30;;
59922;SDS011;45778;51.142;3.732;2023-05-16T14:42:29;1.10;;;0.30;;
59922;SDS011;45778;51.142;3.732;2023-05-16T14:44:55;3.03;;;0.40;;
59922;SDS011;45778;51.142;3.732;2023-05-16T14:47:21;4.28;;;0.40;;
59922;SDS011;45778;51.142;3.732;2023-05-16T14:49:47;1.23;;;0.50;;
59922;SDS011;45778;51.142;3.732;2023-05-16T14:52:12;2.38;;;0.30;;
59922;SDS011;45778;51.142;3.732;2023-05-16T14:54:38;1.55;;;0.30;;
59922;SDS011;45778;51.142;3.732;2023-05-16T14:57:04;1.85;;;0.40;;
59922;SDS011;45778;51.142;3.732;2023-05-16T14:59:30;4.28;;;1.50;;
59922;SDS011;45778;51.142;3.732;2023-05-16T15:01:56;3.92;;;0.40;;
59922;SDS011;45778;51.142;3.732;2023-05-16T15:04:22;2.10;;;0.30;;
59922;SDS011;45778;51.142;3.732;2023-05-16T15:06:48;0.82;;;0.20;;
59922;SDS011;45778;51.142;3.732;2023-05-16T15:09:13;4.50;;;0.55;;
59922;SDS011;45778;51.142;3.732;2023-05-16T15:11:39;3.20;;;0.60;;